Time;durP1;ratioP1;P1;durP2;ratioP2;P2;SDS_P1;SDS_P2;PMS_P1;PMS_P2;Temp;Humidity;BMP_temperature;BMP_pressure;BME280_temperature;BME280_humidity;BME280_pressure;Samples;Min_cycle;Max_cycle;Signal;HPM_P1;HPM_P2
2022/12/08 00:01:31;;;;;;;42.72;12.52;;;;;;;0.01;0.00;59042.03;5016367;28;21088;-57
2022/12/08 00:03:59;;;;;;;43.58;12.77;;;;;;;0.01;0.00;59042.03;5017062;28;20518;-56
2022/12/08 00:09:23;;;;;;;49.00;12.50;;;;;;;0.01;0.00;59042.03;5018591;28;20521;-55
2022/12/08 00:11:59;;;;;;;42.50;12.18;;;;;;;0.01;0.00;59042.03;5020878;28;20045;-57
2022/12/08 00:14:30;;;;;;;48.65;13.00;;;;;;;0.01;0.00;59042.03;5020832;28;20230;-55
2022/12/08 00:16:56;;;;;;;52.22;13.90;;;;;;;0.01;0.00;59042.03;5019219;28;20049;-56
2022/12/08 00:19:22;;;;;;;55.20;14.38;;;;;;;0.01;0.00;59042.03;5021099;28;20033;-55
2022/12/08 00:21:48;;;;;;;43.63;12.40;;;;;;;0.01;0.00;59042.03;5020634;28;20048;-54
2022/12/08 00:24:13;;;;;;;53.17;13.57;;;;;;;0.01;0.00;59042.03;5020867;28;20037;-56
2022/12/08 00:26:39;;;;;;;47.67;13.25;;;;;;;0.01;0.00;59042.03;5021146;28;20064;-55
2022/12/08 00:29:05;;;;;;;45.35;12.38;;;;;;;0.01;0.00;59042.03;5021872;28;20510;-55
2022/12/08 00:31:31;;;;;;;51.65;13.43;;;;;;;0.01;0.00;59042.03;5020337;28;20033;-56
2022/12/08 00:33:57;;;;;;;41.63;11.93;;;;;;;0.01;0.00;59042.03;5021286;28;20360;-58
2022/12/08 00:36:22;;;;;;;50.25;13.48;;;;;;;0.01;0.00;59042.03;5019925;28;20092;-57
2022/12/08 00:38:47;;;;;;;43.67;13.00;;;;;;;0.01;0.00;59042.03;5020948;28;20033;-55
2022/12/08 00:41:15;;;;;;;52.72;12.52;;;;;;;0.01;0.00;59042.03;5020306;28;20088;-56
2022/12/08 00:43:41;;;;;;;50.17;12.18;;;;;;;0.01;0.00;59042.03;5020716;28;20028;-55
2022/12/08 00:46:07;;;;;;;42.47;11.85;;;;;;;0.01;0.00;59042.03;5020554;28;20033;-54
2022/12/08 00:48:33;;;;;;;48.20;13.70;;;;;;;0.01;0.00;59042.03;5020906;28;20132;-55
2022/12/08 00:50:58;;;;;;;43.78;11.73;;;;;;;0.01;0.00;59042.03;5020316;28;20111;-57
2022/12/08 00:53:23;;;;;;;46.60;12.75;;;;;;;0.01;0.00;59042.03;5021003;28;20071;-55
2022/12/08 00:55:49;;;;;;;59.67;14.27;;;;;;;0.01;0.00;59042.03;5019410;28;20041;-55
2022/12/08 00:58:14;;;;;;;47.33;12.93;;;;;;;0.01;0.00;59042.03;5020811;28;20025;-57
2022/12/08 01:00:40;;;;;;;55.38;13.60;;;;;;;0.01;0.00;59042.03;5019544;28;20057;-55
2022/12/08 01:03:09;;;;;;;44.55;11.70;;;;;;;0.01;0.00;59042.03;5020407;28;20030;-57
2022/12/08 01:05:34;;;;;;;45.10;12.63;;;;;;;0.01;0.00;59042.03;5019686;28;20696;-55
2022/12/08 01:07:59;;;;;;;38.28;11.63;;;;;;;0.01;0.00;59042.03;5020793;28;20029;-55
2022/12/08 01:10:25;;;;;;;37.58;11.45;;;;;;;0.01;0.00;59042.03;5019747;28;20044;-55
2022/12/08 01:12:50;;;;;;;43.72;11.45;;;;;;;0.01;0.00;59042.03;5019874;28;20124;-55
2022/12/08 01:15:16;;;;;;;38.90;10.90;;;;;;;0.01;0.00;59042.03;5020050;28;20403;-55
2022/12/08 01:17:41;;;;;;;37.22;11.23;;;;;;;0.01;0.00;59042.03;5020264;28;20044;-55
2022/12/08 01:20:07;;;;;;;52.20;11.95;;;;;;;0.01;0.00;59042.03;5019817;28;20025;-55
2022/12/08 01:22:34;;;;;;;44.40;12.52;;;;;;;0.01;0.00;59042.03;5020027;28;20047;-57
2022/12/08 01:24:59;;;;;;;44.08;11.63;;;;;;;0.01;0.00;59042.03;5019634;28;20029;-55
2022/12/08 01:27:24;;;;;;;40.95;12.02;;;;;;;0.01;0.00;59042.03;5018427;28;20041;-55
2022/12/08 01:29:50;;;;;;;46.88;12.07;;;;;;;0.01;0.00;59042.03;5020551;28;20550;-55
2022/12/08 01:32:15;;;;;;;35.40;8.15;;;;;;;0.01;0.00;59042.03;5018897;28;20052;-56
2022/12/08 01:34:41;;;;;;;47.72;12.52;;;;;;;0.01;0.00;59042.03;5020329;28;20526;-55
2022/12/08 01:37:06;;;;;;;39.50;10.52;;;;;;;0.01;0.00;59042.03;5018362;28;20041;-57
2022/12/08 01:39:32;;;;;;;46.03;13.13;;;;;;;0.01;0.00;59042.03;5020124;28;20497;-58
2022/12/08 01:41:57;;;;;;;43.28;12.30;;;;;;;0.01;0.00;59042.03;5019743;28;20053;-54
2022/12/08 01:44:22;;;;;;;28.13;8.63;;;;;;;0.01;0.00;59042.03;5019839;28;20118;-55
2022/12/08 01:46:50;;;;;;;47.90;12.40;;;;;;;0.01;0.00;59042.03;5019095;28;20129;-55
2022/12/08 01:49:27;;;;;;;48.75;11.98;;;;;;;0.01;0.00;59042.03;5019654;28;20076;-56
2022/12/08 01:52:02;;;;;;;35.08;9.30;;;;;;;0.01;0.00;59042.03;5018677;28;20049;-57
2022/12/08 01:54:33;;;;;;;45.25;12.82;;;;;;;0.01;0.00;59042.03;5019470;28;20029;-55
2022/12/08 01:57:39;;;;;;;40.50;11.63;;;;;;;0.01;0.00;59042.03;5019509;28;20037;-56
2022/12/08 02:03:01;;;;;;;174.30;24.42;;;;;;;0.01;0.00;59042.03;5972930;23;20111;-55
2022/12/08 02:19:00;;;;;;;138.90;22.30;;;;;;;0.01;0.00;59042.03;6017039;22;20020;-55
2022/12/08 02:34:24;;;;;;;93.95;16.17;;;;;;;0.01;0.00;59042.03;5728101;23;20741;-56
2022/12/08 02:40:00;;;;;;;122.10;18.38;;;;;;;0.01;0.00;59042.03;5932687;22;20250;-57
2022/12/08 03:01:27;;;;;;;126.93;19.77;;;;;;;0.01;0.00;59042.03;6026750;22;20017;-55
2022/12/08 03:04:04;;;;;;;64.03;13.32;;;;;;;0.01;0.00;59042.03;5011813;28;20626;-57
2022/12/08 03:06:47;;;;;;;44.67;12.02;;;;;;;0.01;0.00;59042.03;5026540;28;20610;-56
2022/12/08 03:09:28;;;;;;;42.30;10.80;;;;;;;0.01;0.00;59042.03;5039045;28;20071;-58
2022/12/08 03:12:01;;;;;;;40.25;10.52;;;;;;;0.01;0.00;59042.03;5037626;28;20287;-52
2022/12/08 03:14:29;;;;;;;38.78;10.77;;;;;;;0.01;0.00;59042.03;5038095;28;20017;-53
2022/12/08 03:16:57;;;;;;;42.25;11.50;;;;;;;0.01;0.00;59042.03;5037798;28;20111;-54
2022/12/08 03:19:30;;;;;;;46.30;12.32;;;;;;;0.01;0.00;59042.03;5038291;28;20033;-57
2022/12/08 03:22:07;;;;;;;50.95;12.45;;;;;;;0.01;0.00;59042.03;5037533;28;20491;-55
2022/12/08 03:24:38;;;;;;;47.13;11.07;;;;;;;0.01;0.00;59042.03;5038584;28;20012;-53
2022/12/08 03:27:23;;;;;;;39.25;10.73;;;;;;;0.01;0.00;59042.03;5036904;28;20049;-55
2022/12/08 03:29:52;;;;;;;39.60;10.85;;;;;;;0.01;0.00;59042.03;5038447;28;20036;-54
2022/12/08 03:32:33;;;;;;;43.97;10.65;;;;;;;0.01;0.00;59042.03;5038274;28;20036;-53
2022/12/08 03:35:02;;;;;;;50.77;11.73;;;;;;;0.01;0.00;59042.03;5037920;28;20490;-53
2022/12/08 03:37:28;;;;;;;41.35;11.63;;;;;;;0.01;0.00;59042.03;5037865;28;20163;-53
2022/12/08 03:39:53;;;;;;;47.08;11.65;;;;;;;0.01;0.00;59042.03;5019892;28;20569;-56
2022/12/08 03:42:19;;;;;;;44.08;11.95;;;;;;;0.01;0.00;59042.03;5003384;28;20052;-56
2022/12/08 03:44:44;;;;;;;49.47;11.27;;;;;;;0.01;0.00;59042.03;5038235;28;20016;-54
2022/12/08 03:47:09;;;;;;;53.20;12.52;;;;;;;0.01;0.00;59042.03;5037441;28;20047;-54
2022/12/08 03:49:35;;;;;;;40.47;12.05;;;;;;;0.01;0.00;59042.03;5038224;28;20025;-57
2022/12/08 03:52:00;;;;;;;39.10;10.63;;;;;;;0.01;0.00;59042.03;5037343;28;20040;-56
2022/12/08 03:54:26;;;;;;;45.30;11.75;;;;;;;0.01;0.00;59042.03;5037976;28;20041;-56
2022/12/08 03:56:51;;;;;;;39.33;10.00;;;;;;;0.01;0.00;59042.03;5037409;28;20083;-56
2022/12/08 03:59:16;;;;;;;52.03;12.00;;;;;;;0.01;0.00;59042.03;5038102;28;20112;-54
2022/12/08 04:01:42;;;;;;;37.25;9.38;;;;;;;0.01;0.00;59042.03;5037307;28;20043;-54
2022/12/08 04:04:07;;;;;;;36.70;10.20;;;;;;;0.01;0.00;59042.03;5037665;28;20125;-54
2022/12/08 04:06:33;;;;;;;40.58;9.80;;;;;;;0.01;0.00;59042.03;5019608;28;20067;-55
2022/12/08 04:08:58;;;;;;;49.72;12.10;;;;;;;0.01;0.00;59042.03;5038088;28;20393;-56
2022/12/08 04:11:23;;;;;;;46.80;10.93;;;;;;;0.01;0.00;59042.03;5037024;28;20083;-56
2022/12/08 04:13:49;;;;;;;42.15;11.00;;;;;;;0.01;0.00;59042.03;5037813;28;20051;-55
2022/12/08 04:16:23;;;;;;;35.72;9.52;;;;;;;0.01;0.00;59042.03;5037333;28;20036;-55
2022/12/08 04:18:49;;;;;;;41.90;10.93;;;;;;;0.01;0.00;59042.03;5037409;28;20104;-57
2022/12/08 04:21:15;;;;;;;43.35;11.07;;;;;;;0.01;0.00;59042.03;5037583;28;20136;-57
2022/12/08 04:23:41;;;;;;;45.75;11.02;;;;;;;0.01;0.00;59042.03;5037580;28;20110;-55
2022/12/08 04:26:07;;;;;;;44.83;11.10;;;;;;;0.01;0.00;59042.03;5037446;28;20061;-57
2022/12/08 04:28:32;;;;;;;47.63;11.30;;;;;;;0.01;0.00;59042.03;5037780;28;20104;-57
2022/12/08 04:30:58;;;;;;;36.60;9.82;;;;;;;0.01;0.00;59042.03;5037208;28;20796;-55
2022/12/08 04:33:23;;;;;;;48.53;11.52;;;;;;;0.01;0.00;59042.03;5038055;28;20047;-56
2022/12/08 04:35:48;;;;;;;46.95;11.32;;;;;;;0.01;0.00;59042.03;5037288;28;20041;-55
2022/12/08 04:38:15;;;;;;;42.30;10.63;;;;;;;0.01;0.00;59042.03;5037695;28;20390;-56
2022/12/08 04:40:40;;;;;;;47.03;10.82;;;;;;;0.01;0.00;59042.03;5036852;28;20037;-56
2022/12/08 04:43:05;;;;;;;44.85;11.27;;;;;;;0.01;0.00;59042.03;5037594;28;20037;-56
2022/12/08 04:45:31;;;;;;;43.67;10.85;;;;;;;0.01;0.00;59042.03;5037148;28;20044;-54
2022/12/08 04:47:59;;;;;;;41.30;11.23;;;;;;;0.01;0.00;59042.03;5037595;28;20182;-55
2022/12/08 04:50:24;;;;;;;39.65;9.52;;;;;;;0.01;0.00;59042.03;5036787;28;20053;-54
2022/12/08 04:52:50;;;;;;;38.70;10.32;;;;;;;0.01;0.00;59042.03;5036890;28;20037;-54
2022/12/08 04:55:15;;;;;;;40.30;11.15;;;;;;;0.01;0.00;59042.03;5037068;28;20029;-55
2022/12/08 04:57:41;;;;;;;42.47;10.90;;;;;;;0.01;0.00;59042.03;5041176;28;20040;-57
2022/12/08 05:00:07;;;;;;;39.20;9.85;;;;;;;0.01;0.00;59042.03;5040316;28;20116;-54
2022/12/08 05:02:32;;;;;;;35.67;10.32;;;;;;;0.01;0.00;59042.03;5041562;28;20017;-54
2022/12/08 05:04:58;;;;;;;36.55;9.70;;;;;;;0.01;0.00;59042.03;5041023;28;20764;-54
2022/12/08 05:07:23;;;;;;;34.35;9.77;;;;;;;0.01;0.00;59042.03;5040939;28;20183;-55
2022/12/08 05:09:49;;;;;;;38.35;10.27;;;;;;;0.01;0.00;59042.03;5041263;28;20029;-54
2022/12/08 05:12:14;;;;;;;37.92;9.82;;;;;;;0.01;0.00;59042.03;5039687;28;20116;-54
2022/12/08 05:14:39;;;;;;;39.72;10.23;;;;;;;0.01;0.00;59042.03;5040725;28;20140;-56
2022/12/08 05:17:05;;;;;;;51.13;11.18;;;;;;;0.01;0.00;59042.03;5040154;28;20041;-54
2022/12/08 05:19:30;;;;;;;36.47;9.02;;;;;;;0.01;0.00;59042.03;5040844;28;20038;-54
2022/12/08 05:21:56;;;;;;;39.67;9.30;;;;;;;0.01;0.00;59042.03;5040050;28;20044;-56
2022/12/08 05:24:21;;;;;;;40.05;9.98;;;;;;;0.01;0.00;59042.03;5040586;28;20052;-54
2022/12/08 05:26:46;;;;;;;34.92;9.82;;;;;;;0.01;0.00;59042.03;5040713;28;20040;-55
2022/12/08 05:29:12;;;;;;;44.92;10.27;;;;;;;0.01;0.00;59042.03;5040576;28;20024;-54
2022/12/08 05:31:37;;;;;;;42.28;9.90;;;;;;;0.01;0.00;59042.03;5039995;28;20120;-56
2022/12/08 05:34:02;;;;;;;37.72;10.13;;;;;;;0.01;0.00;59042.03;5040408;28;20375;-56
2022/12/08 05:36:28;;;;;;;37.00;10.13;;;;;;;0.01;0.00;59042.03;5040017;28;20448;-54
2022/12/08 05:38:56;;;;;;;31.88;9.40;;;;;;;0.01;0.00;59042.03;5040245;28;20056;-54
2022/12/08 05:41:22;;;;;;;41.45;11.18;;;;;;;0.01;0.00;59042.03;5039914;28;20049;-53
2022/12/08 05:43:47;;;;;;;47.70;10.25;;;;;;;0.01;0.00;59042.03;5041084;28;20040;-56
2022/12/08 05:46:14;;;;;;;42.10;10.07;;;;;;;0.01;0.00;59042.03;5039091;28;20037;-54
2022/12/08 05:48:39;;;;;;;39.00;9.70;;;;;;;0.01;0.00;59042.03;5040222;28;20983;-53
2022/12/08 05:51:12;;;;;;;42.70;12.20;;;;;;;0.01;0.00;59042.03;5039470;28;20040;-53
2022/12/08 05:53:37;;;;;;;51.85;11.77;;;;;;;0.01;0.00;59042.03;5040309;28;20390;-55
2022/12/08 05:56:03;;;;;;;33.03;7.75;;;;;;;0.01;0.00;59042.03;5039714;28;20576;-56
2022/12/08 05:58:28;;;;;;;45.30;10.30;;;;;;;0.01;0.00;59042.03;5021814;28;20450;-56
2022/12/08 06:00:53;;;;;;;48.25;11.40;;;;;;;0.01;0.00;59042.03;5039440;28;20029;-56
2022/12/08 06:03:19;;;;;;;43.15;11.27;;;;;;;0.01;0.00;59042.03;5040188;28;20450;-54
2022/12/08 06:05:45;;;;;;;41.40;10.15;;;;;;;0.01;0.00;59042.03;5039200;28;20037;-54
2022/12/08 06:08:12;;;;;;;40.33;10.10;;;;;;;0.01;0.00;59042.03;5039613;28;20033;-55
2022/12/08 06:10:42;;;;;;;43.53;11.48;;;;;;;0.01;0.00;59042.03;5038658;28;20033;-55
2022/12/08 06:13:07;;;;;;;35.42;7.90;;;;;;;0.01;0.00;59042.03;5039654;28;20033;-55
2022/12/08 06:15:34;;;;;;;39.30;10.80;;;;;;;0.01;0.00;59042.03;5039732;28;20398;-54
2022/12/08 06:17:59;;;;;;;39.53;10.02;;;;;;;0.01;0.00;59042.03;5039451;28;20102;-54
2022/12/08 06:20:25;;;;;;;40.03;10.65;;;;;;;0.01;0.00;59042.03;5039140;28;20040;-54
2022/12/08 06:22:50;;;;;;;47.00;11.25;;;;;;;0.01;0.00;59042.03;5039251;28;20916;-54
2022/12/08 06:25:16;;;;;;;49.30;11.93;;;;;;;0.01;0.00;59042.03;5021102;28;20127;-54
2022/12/08 06:27:41;;;;;;;41.00;11.18;;;;;;;0.01;0.00;59042.03;5039404;28;20496;-54
2022/12/08 06:30:07;;;;;;;51.28;11.98;;;;;;;0.01;0.00;59042.03;5038441;28;20024;-53
2022/12/08 06:32:32;;;;;;;48.58;12.00;;;;;;;0.01;0.00;59042.03;5038607;28;20120;-56
2022/12/08 06:34:58;;;;;;;45.20;10.50;;;;;;;0.01;0.00;59042.03;5038840;28;20033;-55
2022/12/08 06:37:23;;;;;;;42.40;11.13;;;;;;;0.01;0.00;59042.03;5038754;28;20425;-55
2022/12/08 06:39:49;;;;;;;31.35;7.30;;;;;;;0.01;0.00;59042.03;5039525;28;20032;-54
2022/12/08 06:44:59;;;;;;;30.02;8.90;;;;;;;0.01;0.00;59042.03;5039022;28;20834;-56
2022/12/08 06:47:24;;;;;;;35.60;9.05;;;;;;;0.01;0.00;59042.03;5038651;28;20397;-55
2022/12/08 06:49:50;;;;;;;45.75;12.35;;;;;;;0.01;0.00;59042.03;5039390;28;20466;-54
2022/12/08 06:52:15;;;;;;;46.63;10.65;;;;;;;0.01;0.00;59042.03;5037882;28;20044;-56
2022/12/08 06:54:40;;;;;;;52.20;12.35;;;;;;;0.01;0.00;59042.03;5039306;28;20508;-53
2022/12/08 06:57:06;;;;;;;58.20;13.55;;;;;;;0.01;0.00;59042.03;5037183;28;20037;-55
2022/12/08 06:59:31;;;;;;;45.17;10.40;;;;;;;0.01;0.00;59042.03;5034566;28;20115;-54
2022/12/08 07:01:57;;;;;;;41.55;11.45;;;;;;;0.01;0.00;59042.03;5036169;28;20044;-55
2022/12/08 07:04:23;;;;;;;55.53;12.80;;;;;;;0.01;0.00;59042.03;5038634;28;20024;-56
2022/12/08 07:06:48;;;;;;;50.05;13.20;;;;;;;0.01;0.00;59042.03;5038166;28;20131;-56
2022/12/08 07:09:14;;;;;;;44.38;11.15;;;;;;;0.01;0.00;59042.03;5038016;28;20463;-54
2022/12/08 07:11:39;;;;;;;58.97;14.45;;;;;;;0.01;0.00;59042.03;5020147;28;20055;-54
2022/12/08 07:14:05;;;;;;;51.47;12.05;;;;;;;0.01;0.00;59042.03;5038733;28;20424;-57
2022/12/08 07:16:30;;;;;;;42.05;9.52;;;;;;;0.01;0.00;59042.03;5037600;28;20068;-56
2022/12/08 07:18:55;;;;;;;45.00;11.93;;;;;;;0.01;0.00;59042.03;5038071;28;20033;-56
2022/12/08 07:21:21;;;;;;;40.38;11.70;;;;;;;0.01;0.00;59042.03;5037896;28;20045;-54
2022/12/08 07:23:48;;;;;;;45.03;11.40;;;;;;;0.01;0.00;59042.03;5038383;28;20112;-53
2022/12/08 07:26:14;;;;;;;36.35;7.90;;;;;;;0.01;0.00;59042.03;5038123;28;20622;-53
2022/12/08 07:28:41;;;;;;;54.70;12.65;;;;;;;0.01;0.00;59042.03;5038028;28;20113;-54
2022/12/08 07:31:08;;;;;;;49.25;12.43;;;;;;;0.01;0.00;59042.03;5019931;28;20049;-55
2022/12/08 07:33:34;;;;;;;50.42;12.75;;;;;;;0.01;0.00;59042.03;5037923;28;20029;-53
2022/12/08 07:36:05;;;;;;;51.63;11.98;;;;;;;0.01;0.00;59042.03;5037588;28;20941;-54
2022/12/08 07:38:30;;;;;;;47.65;12.40;;;;;;;0.01;0.00;59042.03;5038275;28;20028;-54
2022/12/08 07:40:56;;;;;;;54.20;13.00;;;;;;;0.01;0.00;59042.03;5036854;28;20041;-55
2022/12/08 07:43:22;;;;;;;45.17;11.57;;;;;;;0.01;0.00;59042.03;5038602;28;20028;-53
2022/12/08 07:45:48;;;;;;;40.75;10.80;;;;;;;0.01;0.00;59042.03;5037555;28;20043;-57
2022/12/08 07:48:13;;;;;;;50.55;12.70;;;;;;;0.01;0.00;59042.03;5038068;28;20528;-53
2022/12/08 07:50:39;;;;;;;54.38;13.38;;;;;;;0.01;0.00;59042.03;5037387;28;20037;-56
2022/12/08 07:53:05;;;;;;;41.83;11.07;;;;;;;0.01;0.00;59042.03;5037710;28;20112;-53
2022/12/08 07:55:31;;;;;;;45.97;11.50;;;;;;;0.01;0.00;59042.03;5037190;28;20035;-53
2022/12/08 07:57:56;;;;;;;41.47;9.80;;;;;;;0.01;0.00;59042.03;5037393;28;20032;-54
2022/12/08 08:00:21;;;;;;;49.40;11.45;;;;;;;0.01;0.00;59042.03;5037279;28;20036;-53
2022/12/08 08:02:47;;;;;;;60.47;12.43;;;;;;;0.01;0.00;59042.03;5037228;28;20063;-55
2022/12/08 08:05:12;;;;;;;41.65;9.07;;;;;;;0.01;0.00;59042.03;5036974;28;20060;-55
2022/12/08 08:07:40;;;;;;;35.28;8.75;;;;;;;0.01;0.00;59042.03;5037930;28;20472;-56
2022/12/08 08:10:06;;;;;;;58.40;13.80;;;;;;;0.01;0.00;59042.03;5037290;28;20032;-54
2022/12/08 08:12:32;;;;;;;46.95;11.13;;;;;;;0.01;0.00;59042.03;5019644;28;20021;-54
2022/12/08 08:14:58;;;;;;;61.67;14.48;;;;;;;0.01;0.00;59042.03;5037163;28;20048;-53
2022/12/08 08:17:24;;;;;;;50.67;12.07;;;;;;;0.01;0.00;59042.03;5037063;28;20040;-54
2022/12/08 08:19:49;;;;;;;61.35;12.88;;;;;;;0.01;0.00;59042.03;5037737;28;20063;-53
2022/12/08 08:22:14;;;;;;;61.85;13.55;;;;;;;0.01;0.00;59042.03;5036250;28;20040;-53
2022/12/08 08:24:40;;;;;;;32.75;7.38;;;;;;;0.01;0.00;59042.03;5037737;28;20086;-55
2022/12/08 08:27:05;;;;;;;53.88;13.20;;;;;;;0.01;0.00;59042.03;5036762;28;20152;-54
2022/12/08 08:29:30;;;;;;;42.53;10.48;;;;;;;0.01;0.00;59042.03;5037227;28;20800;-53
2022/12/08 08:31:56;;;;;;;41.97;9.38;;;;;;;0.01;0.00;59042.03;5005557;28;20037;-53
2022/12/08 08:34:21;;;;;;;50.13;12.57;;;;;;;0.01;0.00;59042.03;5041530;28;20021;-52
2022/12/08 08:36:46;;;;;;;44.47;12.02;;;;;;;0.01;0.00;59042.03;5040674;28;20527;-53
2022/12/08 08:39:12;;;;;;;37.22;9.23;;;;;;;0.01;0.00;59042.03;5040942;28;20071;-56
2022/12/08 08:41:37;;;;;;;51.03;11.50;;;;;;;0.01;0.00;59042.03;5040526;28;20060;-56
2022/12/08 08:44:03;;;;;;;49.15;13.20;;;;;;;0.01;0.00;59042.03;5041007;28;20119;-55
2022/12/08 08:46:29;;;;;;;50.60;12.25;;;;;;;0.01;0.00;59042.03;5040380;28;20139;-54
2022/12/08 08:48:55;;;;;;;51.08;11.60;;;;;;;0.01;0.00;59042.03;5040791;28;20029;-53
2022/12/08 08:51:20;;;;;;;45.60;11.30;;;;;;;0.01;0.00;59042.03;5040461;28;20041;-54
2022/12/08 08:53:46;;;;;;;39.88;10.45;;;;;;;0.01;0.00;59042.03;5040883;28;20029;-56
2022/12/08 08:56:13;;;;;;;56.40;13.98;;;;;;;0.01;0.00;59042.03;5040000;28;20556;-55
2022/12/08 08:58:39;;;;;;;43.30;10.95;;;;;;;0.01;0.00;59042.03;5040995;28;20037;-57
2022/12/08 09:01:05;;;;;;;54.90;13.75;;;;;;;0.01;0.00;59042.03;5039795;28;20044;-53
2022/12/08 09:03:30;;;;;;;45.08;12.65;;;;;;;0.01;0.00;59042.03;5040397;28;20611;-54
2022/12/08 09:05:55;;;;;;;43.05;12.60;;;;;;;0.01;0.00;59042.03;5040594;28;20055;-55
2022/12/08 09:08:22;;;;;;;36.13;9.65;;;;;;;0.01;0.00;59042.03;5041127;28;20063;-53
2022/12/08 09:10:47;;;;;;;45.13;11.48;;;;;;;0.01;0.00;59042.03;5039861;28;20060;-54
2022/12/08 09:13:13;;;;;;;50.58;11.55;;;;;;;0.01;0.00;59042.03;5040516;28;20117;-55
2022/12/08 09:15:38;;;;;;;52.22;12.27;;;;;;;0.01;0.00;59042.03;5039508;28;20359;-54
2022/12/08 09:18:05;;;;;;;43.30;9.93;;;;;;;0.01;0.00;59042.03;5038608;28;20025;-53
2022/12/08 09:20:31;;;;;;;37.42;9.02;;;;;;;0.01;0.00;59042.03;5039896;28;20135;-57
2022/12/08 09:22:57;;;;;;;35.47;9.20;;;;;;;0.01;0.00;59042.03;5039779;28;20534;-55
2022/12/08 09:25:22;;;;;;;50.67;12.90;;;;;;;0.01;0.00;59042.03;5039856;28;20048;-54
2022/12/08 09:27:47;;;;;;;58.72;14.30;;;;;;;0.01;0.00;59042.03;5040036;28;20544;-54
2022/12/08 09:30:13;;;;;;;35.40;10.82;;;;;;;0.01;0.00;59042.03;5039337;28;20025;-52
2022/12/08 09:32:39;;;;;;;48.70;12.38;;;;;;;0.01;0.00;59042.03;5040187;28;20492;-56
2022/12/08 09:35:04;;;;;;;47.45;10.63;;;;;;;0.01;0.00;59042.03;5039531;28;20409;-53
2022/12/08 09:37:30;;;;;;;41.83;11.02;;;;;;;0.01;0.00;59042.03;5039768;28;20085;-55
2022/12/08 09:39:55;;;;;;;26.08;7.53;;;;;;;0.01;0.00;59042.03;5040659;28;20035;-54
2022/12/08 09:42:54;;;;;;;46.05;13.02;;;;;;;0.01;0.00;59042.03;5038451;28;20040;-55
2022/12/08 09:45:22;;;;;;;55.47;14.05;;;;;;;0.01;0.00;59042.03;5021471;28;20052;-53
2022/12/08 09:47:57;;;;;;;43.95;11.57;;;;;;;0.01;0.00;59042.03;5040155;28;20029;-54
2022/12/08 09:50:34;;;;;;;56.55;14.07;;;;;;;0.01;0.00;59042.03;5039660;28;20029;-54
2022/12/08 09:53:11;;;;;;;46.50;11.82;;;;;;;0.01;0.00;59042.03;5039475;28;20028;-55
2022/12/08 09:55:45;;;;;;;38.40;11.18;;;;;;;0.01;0.00;59042.03;5038700;28;20045;-53
2022/12/08 09:58:34;;;;;;;34.83;9.07;;;;;;;0.01;0.00;59042.03;5040265;28;20035;-53
2022/12/08 10:00:59;;;;;;;50.72;12.13;;;;;;;0.01;0.00;59042.03;5038864;28;20041;-53
2022/12/08 10:03:29;;;;;;;50.50;12.55;;;;;;;0.01;0.00;59042.03;5039997;28;20028;-55
2022/12/08 10:06:14;;;;;;;47.47;12.93;;;;;;;0.01;0.00;59042.03;5039543;28;20908;-53
2022/12/08 10:09:08;;;;;;;38.00;9.88;;;;;;;0.01;0.00;59042.03;5038761;28;20043;-53
2022/12/08 10:12:09;;;;;;;46.55;12.10;;;;;;;0.01;0.00;59042.03;5038929;28;20457;-55
2022/12/08 10:14:44;;;;;;;37.33;10.55;;;;;;;0.01;0.00;59042.03;5022726;28;20506;-53
2022/12/08 10:17:18;;;;;;;40.40;9.65;;;;;;;0.01;0.00;59042.03;5039213;28;20787;-56
2022/12/08 10:19:45;;;;;;;45.90;10.90;;;;;;;0.01;0.00;59042.03;5039315;28;20032;-54
2022/12/08 10:22:21;;;;;;;47.08;12.88;;;;;;;0.01;0.00;59042.03;5038212;28;20041;-53
2022/12/08 10:25:05;;;;;;;36.75;8.88;;;;;;;0.01;0.00;59042.03;5038958;28;20029;-53
2022/12/08 10:27:34;;;;;;;36.25;9.27;;;;;;;0.01;0.00;59042.03;5038822;28;20041;-56
2022/12/08 10:30:00;;;;;;;33.38;9.48;;;;;;;0.01;0.00;59042.03;5039458;28;20099;-55
2022/12/08 10:32:33;;;;;;;37.55;10.10;;;;;;;0.01;0.00;59042.03;5038520;28;20040;-54
2022/12/08 10:35:02;;;;;;;33.42;7.63;;;;;;;0.01;0.00;59042.03;5039306;28;20170;-56
2022/12/08 10:37:27;;;;;;;43.63;11.35;;;;;;;0.01;0.00;59042.03;5038864;28;20119;-54
2022/12/08 10:40:14;;;;;;;52.80;11.98;;;;;;;0.01;0.00;59042.03;5038422;28;20614;-54
2022/12/08 10:42:45;;;;;;;38.88;11.68;;;;;;;0.01;0.00;59042.03;5038852;28;20129;-55
2022/12/08 10:45:37;;;;;;;38.65;11.18;;;;;;;0.01;0.00;59042.03;5038539;28;20919;-54
2022/12/08 10:48:15;;;;;;;48.83;11.82;;;;;;;0.01;0.00;59042.03;5038896;28;20035;-54
2022/12/08 10:50:44;;;;;;;41.45;11.15;;;;;;;0.01;0.00;59042.03;5038016;28;20705;-56
2022/12/08 10:53:19;;;;;;;42.72;11.18;;;;;;;0.01;0.00;59042.03;5037998;28;20037;-54
2022/12/08 10:55:49;;;;;;;34.97;9.98;;;;;;;0.01;0.00;59042.03;5037688;28;20033;-56
2022/12/08 10:58:26;;;;;;;44.90;11.98;;;;;;;0.01;0.00;59042.03;5038971;28;20032;-55
2022/12/08 11:00:58;;;;;;;38.30;9.93;;;;;;;0.01;0.00;59042.03;5037421;28;20545;-56
2022/12/08 11:03:30;;;;;;;41.15;11.05;;;;;;;0.01;0.00;59042.03;5038501;28;20037;-54
2022/12/08 11:05:58;;;;;;;37.00;10.52;;;;;;;0.01;0.00;59042.03;5038382;28;20049;-55
2022/12/08 11:08:25;;;;;;;34.33;9.50;;;;;;;0.01;0.00;59042.03;5038304;28;20029;-54
2022/12/08 11:10:50;;;;;;;41.97;11.23;;;;;;;0.01;0.00;59042.03;5036640;28;20033;-54
2022/12/08 11:13:25;;;;;;;39.08;10.70;;;;;;;0.01;0.00;59042.03;5038555;28;20043;-55
2022/12/08 11:15:55;;;;;;;35.67;11.35;;;;;;;0.01;0.00;59042.03;5037819;28;20037;-54
2022/12/08 11:18:29;;;;;;;48.72;11.85;;;;;;;0.01;0.00;59042.03;5037449;28;20587;-55
2022/12/08 11:20:57;;;;;;;36.40;10.75;;;;;;;0.01;0.00;59042.03;5037348;28;20064;-55
2022/12/08 11:23:25;;;;;;;36.20;10.50;;;;;;;0.01;0.00;59042.03;5037855;28;20029;-54
2022/12/08 11:25:54;;;;;;;37.45;10.20;;;;;;;0.01;0.00;59042.03;5037743;28;20846;-55
2022/12/08 11:28:23;;;;;;;44.67;10.60;;;;;;;0.01;0.00;59042.03;5038234;28;20063;-57
2022/12/08 11:30:56;;;;;;;43.17;10.20;;;;;;;0.01;0.00;59042.03;5037549;28;20033;-55
2022/12/08 11:33:27;;;;;;;42.17;11.98;;;;;;;0.01;0.00;59042.03;5038798;28;20024;-55
2022/12/08 11:36:03;;;;;;;39.30;10.57;;;;;;;0.01;0.00;59042.03;5038095;28;20052;-57
2022/12/08 11:38:31;;;;;;;38.78;11.35;;;;;;;0.01;0.00;59042.03;5037934;28;20044;-55
2022/12/08 11:41:23;;;;;;;34.42;10.88;;;;;;;0.01;0.00;59042.03;5037503;28;20164;-55
2022/12/08 11:44:36;;;;;;;37.65;10.00;;;;;;;0.01;0.00;59042.03;5037986;28;20013;-56
2022/12/08 11:47:21;;;;;;;40.15;10.60;;;;;;;0.01;0.00;59042.03;5033728;28;20144;-56
2022/12/08 11:49:55;;;;;;;35.25;9.13;;;;;;;0.01;0.00;59042.03;5037778;28;20418;-54
2022/12/08 11:52:32;;;;;;;36.25;10.15;;;;;;;0.01;0.00;59042.03;5037295;28;20178;-55
2022/12/08 11:55:15;;;;;;;29.75;8.10;;;;;;;0.01;0.00;59042.03;5038175;28;20029;-55
2022/12/08 11:57:40;;;;;;;35.58;9.07;;;;;;;0.01;0.00;59042.03;5037439;28;20040;-53
2022/12/08 12:00:11;;;;;;;34.45;9.25;;;;;;;0.01;0.00;59042.03;5037243;28;20031;-56
2022/12/08 12:02:42;;;;;;;30.45;8.48;;;;;;;0.01;0.00;59042.03;5037422;28;20036;-54
2022/12/08 12:05:22;;;;;;;33.58;9.02;;;;;;;0.01;0.00;59042.03;5036854;28;20024;-56
2022/12/08 12:08:14;;;;;;;37.97;9.73;;;;;;;0.01;0.00;59042.03;5037260;28;20108;-56
2022/12/08 12:11:01;;;;;;;27.53;8.40;;;;;;;0.01;0.00;59042.03;5036959;28;20044;-57
2022/12/08 12:13:26;;;;;;;30.25;7.80;;;;;;;0.01;0.00;59042.03;5037820;28;20317;-57
2022/12/08 12:16:22;;;;;;;34.72;9.48;;;;;;;0.01;0.00;59042.03;5037074;28;20037;-55
2022/12/08 12:19:09;;;;;;;29.40;8.20;;;;;;;0.01;0.00;59042.03;5038118;28;20135;-54
2022/12/08 12:21:42;;;;;;;31.73;8.23;;;;;;;0.01;0.00;59042.03;5036380;28;20041;-56
2022/12/08 12:24:33;;;;;;;38.20;9.70;;;;;;;0.01;0.00;59042.03;5037396;28;20027;-55
2022/12/08 12:27:13;;;;;;;33.10;9.20;;;;;;;0.01;0.00;59042.03;5037098;28;20064;-57
2022/12/08 12:29:46;;;;;;;35.58;8.73;;;;;;;0.01;0.00;59042.03;5037276;28;20040;-56
2022/12/08 12:32:12;;;;;;;35.00;8.98;;;;;;;0.01;0.00;59042.03;5035217;28;20127;-55
2022/12/08 12:34:49;;;;;;;27.58;6.93;;;;;;;0.01;0.00;59042.03;5037475;28;20863;-55
2022/12/08 12:37:22;;;;;;;28.67;7.43;;;;;;;0.01;0.00;59042.03;5036626;28;20112;-55
2022/12/08 12:40:02;;;;;;;35.50;8.98;;;;;;;0.01;0.00;59042.03;5037432;28;20175;-55